地図

経路データ

SID SEASON NUMBER BASIN SUBBASIN NAME ISO_TIME NATURE LAT LON WMO_WIND WMO_PRES WMO_AGENCY TRACK_TYPE DIST2LAND LANDFALL IFLAG USA_AGENCY USA_ATCF_ID USA_LAT USA_LON USA_RECORD USA_STATUS USA_WIND USA_PRES USA_SSHS USA_R34_NE USA_R34_SE USA_R34_SW USA_R34_NW USA_R50_NE USA_R50_SE USA_R50_SW USA_R50_NW USA_R64_NE USA_R64_SE USA_R64_SW USA_R64_NW USA_POCI USA_ROCI USA_RMW USA_EYE TOKYO_LAT TOKYO_LON TOKYO_GRADE TOKYO_WIND TOKYO_PRES TOKYO_R50_DIR TOKYO_R50_LONG TOKYO_R50_SHORT TOKYO_R30_DIR TOKYO_R30_LONG TOKYO_R30_SHORT TOKYO_LAND CMA_LAT CMA_LON CMA_CAT CMA_WIND CMA_PRES HKO_LAT HKO_LON HKO_CAT HKO_WIND HKO_PRES NEWDELHI_LAT NEWDELHI_LON NEWDELHI_GRADE NEWDELHI_WIND NEWDELHI_PRES NEWDELHI_CI NEWDELHI_DP NEWDELHI_POCI REUNION_LAT REUNION_LON REUNION_TYPE REUNION_WIND REUNION_PRES REUNION_TNUM REUNION_CI REUNION_RMW REUNION_R34_NE REUNION_R34_SE REUNION_R34_SW REUNION_R34_NW REUNION_R50_NE REUNION_R50_SE REUNION_R50_SW REUNION_R50_NW REUNION_R64_NE REUNION_R64_SE REUNION_R64_SW REUNION_R64_NW BOM_LAT BOM_LON BOM_TYPE BOM_WIND BOM_PRES BOM_TNUM BOM_CI BOM_RMW BOM_R34_NE BOM_R34_SE BOM_R34_SW BOM_R34_NW BOM_R50_NE BOM_R50_SE BOM_R50_SW BOM_R50_NW BOM_R64_NE BOM_R64_SE BOM_R64_SW BOM_R64_NW BOM_ROCI BOM_POCI BOM_EYE BOM_POS_METHOD BOM_PRES_METHOD NADI_LAT NADI_LON NADI_CAT NADI_WIND NADI_PRES WELLINGTON_LAT WELLINGTON_LON WELLINGTON_WIND WELLINGTON_PRES DS824_LAT DS824_LON DS824_STAGE DS824_WIND DS824_PRES TD9636_LAT TD9636_LON TD9636_STAGE TD9636_WIND TD9636_PRES TD9635_LAT TD9635_LON TD9635_WIND TD9635_PRES TD9635_ROCI NEUMANN_LAT NEUMANN_LON NEUMANN_CLASS NEUMANN_WIND NEUMANN_PRES MLC_LAT MLC_LON MLC_CLASS MLC_WIND MLC_PRES USA_GUST BOM_GUST BOM_GUST_PER REUNION_GUST REUNION_GUST_PER USA_SEAHGT USA_SEARAD_NE USA_SEARAD_SE USA_SEARAD_SW USA_SEARAD_NW STORM_SPEED STORM_DIR
1966318N31333 1966 113 NA NA NOT_NAMED 1966-11-13 18:00:00 SS 30.9000 -26.7000 35 hurdat_atl main 998 995 O_____________ hurdat_atl AL161966 30.9000 -26.7000 SS 35 -2 9 205
1966318N31333 1966 113 NA NA NOT_NAMED 1966-11-13 21:00:00 SS 30.4825 -26.9303 main 1007 1007 P_____________ AL161966 30.4825 -26.9303 SS 35 -2 9 208
1966318N31333 1966 113 NA NA NOT_NAMED 1966-11-14 00:00:00 SS 30.1000 -27.2000 35 hurdat_atl main 1027 1027 O_____________ hurdat_atl AL161966 30.1000 -27.2000 SS 35 -2 9 217
1966318N31333 1966 113 NA NA NOT_NAMED 1966-11-14 03:00:00 SS 29.7775 -27.5349 main 1051 1051 P_____________ AL161966 29.7775 -27.5349 SS 35 -2 9 225
1966318N31333 1966 113 NA NA NOT_NAMED 1966-11-14 06:00:00 SS 29.5000 -27.9000 35 hurdat_atl main 1087 1087 O_____________ hurdat_atl AL161966 29.5000 -27.9000 SS 35 -2 9 228
1966318N31333 1966 113 NA NA NOT_NAMED 1966-11-14 09:00:00 SS 29.1976 -28.2727 main 1123 1123 P_____________ AL161966 29.1976 -28.2727 SS 35 -2 8 231
1966318N31333 1966 113 NA NA NOT_NAMED 1966-11-14 12:00:00 TS 29.0000 -28.6000 35 hurdat_atl main 1152 1152 O_____________ hurdat_atl AL161966 29.0000 -28.6000 TS 35 0 5 248
1966318N31333 1966 113 NA NA NOT_NAMED 1966-11-14 15:00:00 TS 28.9974 -28.8297 main 1171 1171 P_____________ AL161966 28.9974 -28.8297 TS 37 0 4 286
1966318N31333 1966 113 NA NA NOT_NAMED 1966-11-14 18:00:00 TS 29.1000 -29.0000 40 hurdat_atl main 1191 1191 O_____________ hurdat_atl AL161966 29.1000 -29.0000 TS 40 0 3 302
1966318N31333 1966 113 NA NA NOT_NAMED 1966-11-14 21:00:00 TS 29.1775 -29.1576 main 1210 1210 P_____________ AL161966 29.1775 -29.1576 TS 42 0 3 307
1966318N31333 1966 113 NA NA NOT_NAMED 1966-11-15 00:00:00 TS 29.3000 -29.3000 45 hurdat_atl main 1221 1221 O_____________ hurdat_atl AL161966 29.3000 -29.3000 TS 45 0 4 320
1966318N31333 1966 113 NA NA NOT_NAMED 1966-11-15 03:00:00 TS 29.4699 -29.4352 main 1231 1231 P_____________ AL161966 29.4699 -29.4352 TS 47 0 5 327
1966318N31333 1966 113 NA NA NOT_NAMED 1966-11-15 06:00:00 TS 29.7000 -29.6000 50 997 hurdat_atl main 1252 1252 O_____________ hurdat_atl AL161966 29.7000 -29.6000 TS 50 997 0 6 325
1966318N31333 1966 113 NA NA NOT_NAMED 1966-11-15 09:00:00 TS 29.9399 -29.8132 main 1273 1273 P_____________ AL161966 29.9399 -29.8132 TS 50 996 0 7 324
1966318N31333 1966 113 NA NA NOT_NAMED 1966-11-15 12:00:00 TS 30.3000 -30.1000 50 hurdat_atl main 1306 1306 I_____________ hurdat_atl AL161966 30.3000 -30.1000 TS 50 995 0 11 328
1966318N31333 1966 113 NA NA NOT_NAMED 1966-11-15 15:00:00 TS 30.8551 -30.4772 main 1353 1353 P_____________ AL161966 30.8551 -30.4772 TS 52 994 0 14 330
1966318N31333 1966 113 NA NA NOT_NAMED 1966-11-15 18:00:00 TS 31.5000 -30.9000 55 994 hurdat_atl main 1402 1402 O_____________ hurdat_atl AL161966 31.5000 -30.9000 TS 55 994 0 14 330
1966318N31333 1966 113 NA NA NOT_NAMED 1966-11-15 21:00:00 TS 32.0924 -31.3006 main 1453 1453 P_____________ AL161966 32.0924 -31.3006 TS 55 0 14 331
1966318N31333 1966 113 NA NA NOT_NAMED 1966-11-16 00:00:00 TS 32.7000 -31.7000 55 hurdat_atl main 1505 1505 O_____________ hurdat_atl AL161966 32.7000 -31.7000 TS 55 0 14 332
1966318N31333 1966 113 NA NA NOT_NAMED 1966-11-16 03:00:00 TS 33.3499 -32.1004 main 1560 1560 P_____________ AL161966 33.3499 -32.1004 TS 55 0 15 333
1966318N31333 1966 113 NA NA NOT_NAMED 1966-11-16 06:00:00 TS 34.0000 -32.5000 55 hurdat_atl main 1619 1619 O_____________ hurdat_atl AL161966 34.0000 -32.5000 TS 55 0 14 332
1966318N31333 1966 113 NA NA NOT_NAMED 1966-11-16 09:00:00 TS 34.6000 -32.9154 main 1676 1676 P_____________ AL161966 34.6000 -32.9154 TS 55 0 14 331
1966318N31333 1966 113 NA NA NOT_NAMED 1966-11-16 12:00:00 TS 35.2000 -33.3000 55 hurdat_atl main 1734 1734 O_____________ hurdat_atl AL161966 35.2000 -33.3000 TS 55 0 14 335
1966318N31333 1966 113 NA NA NOT_NAMED 1966-11-16 15:00:00 TS 35.8274 -33.6232 main 1784 1784 P_____________ AL161966 35.8274 -33.6232 TS 55 0 14 339
1966318N31333 1966 113 NA NA NOT_NAMED 1966-11-16 18:00:00 TS 36.5000 -33.9000 55 hurdat_atl main 1840 1840 O_____________ hurdat_atl AL161966 36.5000 -33.9000 TS 55 0 15 343
1966318N31333 1966 113 NA NA NOT_NAMED 1966-11-16 21:00:00 TS 37.2200 -34.1655 main 1872 1802 P_____________ AL161966 37.2200 -34.1655 TS 55 0 16 345
1966318N31333 1966 113 NA NA NOT_NAMED 1966-11-17 00:00:00 TS 38.0000 -34.4000 55 hurdat_atl main 1802 1740 O_____________ hurdat_atl AL161966 38.0000 -34.4000 TS 55 0 16 348
1966318N31333 1966 113 NA NA NOT_NAMED 1966-11-17 03:00:00 TS 38.7899 -34.6013 main 1734 1668 P_____________ AL161966 38.7899 -34.6013 TS 55 0 17 350
1966318N31333 1966 113 NA NA NOT_NAMED 1966-11-17 06:00:00 TS 39.7000 -34.8000 55 hurdat_atl main 1661 1579 O_____________ hurdat_atl AL161966 39.7000 -34.8000 TS 55 0 21 350
1966318N31333 1966 113 NA NA NOT_NAMED 1966-11-17 09:00:00 TS 40.8052 -35.0709 main 1572 1493 P_____________ AL161966 40.8052 -35.0709 TS 55 0 23 351
1966318N31333 1966 113 NA NA NOT_NAMED 1966-11-17 12:00:00 TS 42.0000 -35.3000 55 hurdat_atl main 1487 1427 O_____________ hurdat_atl AL161966 42.0000 -35.3000 TS 55 0 23 354
1966318N31333 1966 113 NA NA NOT_NAMED 1966-11-17 15:00:00 TS 43.0900 -35.4167 main 1422 1373 P_____________ AL161966 43.0900 -35.4167 TS 55 0 23 358
1966318N31333 1966 113 NA NA NOT_NAMED 1966-11-17 18:00:00 ET 44.3000 -35.4000 55 hurdat_atl main 1369 1328 O_____________ hurdat_atl AL161966 44.3000 -35.4000 EX 55 -4 27 1
1966318N31333 1966 113 NA NA NOT_NAMED 1966-11-17 21:00:00 ET 45.7969 -35.3150 main 1325 1309 P_____________ AL161966 45.7969 -35.3150 EX 55 -4 31 5
1966318N31333 1966 113 NA NA NOT_NAMED 1966-11-18 00:00:00 ET 47.4000 -35.0000 55 hurdat_atl main 1314 1312 O_____________ hurdat_atl AL161966 47.4000 -35.0000 EX 55 -4 32 11
1966318N31333 1966 113 NA NA NOT_NAMED 1966-11-18 03:00:00 ET 48.9739 -34.4078 main 1348 1237 P_____________ AL161966 48.9739 -34.4078 EX 55 -4 32 18
1966318N31333 1966 113 NA NA NOT_NAMED 1966-11-18 06:00:00 ET 50.4000 -33.5000 55 hurdat_atl main 1230 1158 O_____________ hurdat_atl AL161966 50.4000 -33.5000 EX 55 -4 29 27
1966318N31333 1966 113 NA NA NOT_NAMED 1966-11-18 09:00:00 ET 51.5618 -32.3598 main 1149 1114 P_____________ AL161966 51.5618 -32.3598 EX 55 -4 26 37
1966318N31333 1966 113 NA NA NOT_NAMED 1966-11-18 12:00:00 ET 52.5000 -31.0000 55 hurdat_atl main 1118 1108 O_____________ hurdat_atl AL161966 52.5000 -31.0000 EX 55 -4 24 45
1966318N31333 1966 113 NA NA NOT_NAMED 1966-11-18 15:00:00 ET 53.2855 -29.5646 main 1109 1109 P_____________ AL161966 53.2855 -29.5646 EX 55 -4 23 50
1966318N31333 1966 113 NA NA NOT_NAMED 1966-11-18 18:00:00 ET 54.0000 -28.0000 55 hurdat_atl main 1125 1028 O_____________ hurdat_atl AL161966 54.0000 -28.0000 EX 55 -4 24 53
1966318N31333 1966 113 NA NA NOT_NAMED 1966-11-18 21:00:00 ET 54.7319 -26.2755 main 1027 918 P_____________ AL161966 54.7319 -26.2755 EX 55 -4 26 52
1966318N31333 1966 113 NA NA NOT_NAMED 1966-11-19 00:00:00 ET 55.6000 -24.5000 55 hurdat_atl main 906 776 O_____________ hurdat_atl AL161966 55.6000 -24.5000 EX 55 -4 27 47
1966318N31333 1966 113 NA NA NOT_NAMED 1966-11-19 03:00:00 ET 56.6180 -22.7423 main 775 621 P_____________ AL161966 56.6180 -22.7423 EX 55 -4 31 39
1966318N31333 1966 113 NA NA NOT_NAMED 1966-11-19 06:00:00 ET 58.0000 -21.0000 55 hurdat_atl main 610 410 O_____________ hurdat_atl AL161966 58.0000 -21.0000 EX 55 -4 37 30
1966318N31333 1966 113 NA NA NOT_NAMED 1966-11-19 09:00:00 ET 59.8417 -19.1632 main 399 178 P_____________ AL161966 59.8417 -19.1632 EX 55 -4 44 25
1966318N31333 1966 113 NA NA NOT_NAMED 1966-11-19 12:00:00 ET 62.0000 -17.3000 55 hurdat_atl main 170 11 O_____________ hurdat_atl AL161966 62.0000 -17.3000 EX 55 -4 47 22
1966318N31333 1966 113 NA NA NOT_NAMED 1966-11-19 15:00:00 ET 64.2430 -15.4625 main 0 0 P_____________ AL161966 64.2430 -15.4625 EX 52 -4 48 20
1966318N31333 1966 113 NA NA NOT_NAMED 1966-11-19 18:00:00 ET 66.5000 -13.5000 50 hurdat_atl main 69 O_____________ hurdat_atl AL161966 66.5000 -13.5000 EX 50 -4 48 19

IBTrACS Databaseについて

本データベースは、米国NOAAが公開する1842年以降の世界の熱帯低気圧のベストトラックデータアーカイブInternational Best Track Archive for Climate Stewardship (IBTrACS)を、ウェブで閲覧しやすい形式に変換したものです。

最終更新日:2022-11-16